createdAt,value
2022-12-08T00:01:29.099Z,87.71
2022-12-08T00:03:57.656Z,86.87
2022-12-08T00:06:55.791Z,88.25
2022-12-08T00:09:39.797Z,88.04
2022-12-08T00:12:16.445Z,87.12
2022-12-08T00:14:46.673Z,87.66
2022-12-08T00:17:16.213Z,88.31
2022-12-08T00:19:43.985Z,88.03
2022-12-08T00:22:15.117Z,87.69
2022-12-08T00:24:45.424Z,87.29
2022-12-08T00:27:15.936Z,88.24
2022-12-08T00:29:45.930Z,87.46
2022-12-08T00:32:12.921Z,86.96
2022-12-08T00:34:39.848Z,87.13
2022-12-08T00:37:06.687Z,87.25
2022-12-08T00:39:33.651Z,87.56
2022-12-08T00:42:12.306Z,87.01
2022-12-08T00:44:44.643Z,87.56
2022-12-08T00:47:13.214Z,87.20
2022-12-08T00:49:40.731Z,86.46
2022-12-08T00:52:08.164Z,86.65
2022-12-08T00:54:34.984Z,86.58
2022-12-08T00:57:01.969Z,87.11
2022-12-08T00:59:28.867Z,86.61
2022-12-08T01:01:55.804Z,86.73
2022-12-08T01:04:22.771Z,87.34
2022-12-08T01:06:50.449Z,88.97
2022-12-08T01:09:18.464Z,88.99
2022-12-08T01:11:46.534Z,88.93
2022-12-08T01:14:14.167Z,88.77
2022-12-08T01:16:41.935Z,89.30
2022-12-08T01:19:12.456Z,90.56
2022-12-08T01:21:40.363Z,90.06
2022-12-08T01:24:09.408Z,89.28
2022-12-08T01:26:36.299Z,89.45
2022-12-08T01:29:03.116Z,89.25
2022-12-08T01:31:29.896Z,89.60
2022-12-08T01:33:57.296Z,89.28
2022-12-08T01:36:28.119Z,88.37
2022-12-08T01:38:58.549Z,87.75
2022-12-08T01:41:29.391Z,88.81
2022-12-08T01:44:11.034Z,89.24
2022-12-08T01:46:47.231Z,89.24
2022-12-08T01:49:24.781Z,89.14
2022-12-08T01:52:11.516Z,88.06
2022-12-08T01:54:59.520Z,87.91
2022-12-08T01:57:35.350Z,88.08
2022-12-08T02:00:12.196Z,88.23
2022-12-08T02:03:03.503Z,88.90
2022-12-08T02:05:35.361Z,88.70
2022-12-08T02:08:11.613Z,88.13
2022-12-08T02:10:42.710Z,88.35
2022-12-08T02:13:14.846Z,89.28
2022-12-08T02:16:02.389Z,89.09
2022-12-08T02:19:30.660Z,88.93
2022-12-08T02:22:07.172Z,88.48
2022-12-08T02:24:56.876Z,88.51
2022-12-08T02:28:09.433Z,89.25
2022-12-08T02:30:53.816Z,89.26
2022-12-08T02:34:03.699Z,88.17
2022-12-08T02:36:48.789Z,88.62
2022-12-08T02:39:46.036Z,87.79
2022-12-08T02:42:37.706Z,88.32
2022-12-08T02:45:24.079Z,87.26
2022-12-08T02:47:52.504Z,87.14
2022-12-08T02:50:19.715Z,86.60
2022-12-08T02:52:48.159Z,87.13
2022-12-08T02:55:25.910Z,86.29
2022-12-08T02:58:22.726Z,86.56
2022-12-08T03:01:37.386Z,84.99
2022-12-08T03:04:42.765Z,86.25
2022-12-08T03:07:29.348Z,87.19
2022-12-08T03:10:21.832Z,86.61
2022-12-08T03:13:06.515Z,86.42
2022-12-08T03:15:36.058Z,86.01
2022-12-08T03:18:05.825Z,86.13
2022-12-08T03:20:34.561Z,85.88
2022-12-08T03:23:06.472Z,85.72
2022-12-08T03:25:37.910Z,85.85
2022-12-08T03:28:06.034Z,86.03
2022-12-08T03:30:37.381Z,86.57
2022-12-08T03:33:07.479Z,86.11
2022-12-08T03:35:37.814Z,85.78
2022-12-08T03:38:09.039Z,85.65
2022-12-08T03:40:35.971Z,85.21
2022-12-08T03:43:03.369Z,85.13
2022-12-08T03:45:30.801Z,84.61
2022-12-08T03:47:58.407Z,84.26
2022-12-08T03:50:25.446Z,84.33
2022-12-08T03:52:52.293Z,84.14
2022-12-08T03:55:19.803Z,84.56
2022-12-08T03:57:46.607Z,84.62
2022-12-08T04:00:17.166Z,83.89
2022-12-08T04:02:44.254Z,84.32
2022-12-08T04:05:11.148Z,83.88
2022-12-08T04:07:38.021Z,84.49
2022-12-08T04:10:06.146Z,84.08
2022-12-08T04:12:33.113Z,84.99
2022-12-08T04:15:00.016Z,85.40
2022-12-08T04:17:27.646Z,86.24
2022-12-08T04:19:54.475Z,86.64
2022-12-08T04:22:21.394Z,87.24
2022-12-08T04:24:48.375Z,87.93
2022-12-08T04:27:15.277Z,88.08
2022-12-08T04:29:42.093Z,88.83
2022-12-08T04:32:09.026Z,88.51
2022-12-08T04:34:35.889Z,88.29
2022-12-08T04:37:02.725Z,87.88
2022-12-08T04:39:29.580Z,87.83
2022-12-08T04:41:56.458Z,88.55
2022-12-08T04:44:23.280Z,88.66
2022-12-08T04:46:50.118Z,88.80
2022-12-08T04:49:17.000Z,88.77
2022-12-08T04:51:43.868Z,88.62
2022-12-08T04:54:10.734Z,89.01
2022-12-08T04:56:38.289Z,89.76
2022-12-08T04:59:05.130Z,89.21
2022-12-08T05:01:32.129Z,90.33
2022-12-08T05:03:59.151Z,89.78
2022-12-08T05:06:26.018Z,90.23
2022-12-08T05:08:52.824Z,90.20
2022-12-08T05:11:19.729Z,90.22
2022-12-08T05:13:46.961Z,90.54
2022-12-08T05:16:15.940Z,90.83
2022-12-08T05:18:43.274Z,90.43
2022-12-08T05:21:10.495Z,90.42
2022-12-08T05:23:37.430Z,90.02
2022-12-08T05:26:04.394Z,90.55
2022-12-08T05:28:46.858Z,90.47
2022-12-08T05:31:16.534Z,89.82
2022-12-08T05:33:45.426Z,91.23
2022-12-08T05:36:14.750Z,90.43
2022-12-08T05:38:42.222Z,91.15
2022-12-08T05:41:10.852Z,90.43
2022-12-08T05:43:37.697Z,90.99
2022-12-08T05:46:05.506Z,90.07
2022-12-08T05:48:32.776Z,91.03
2022-12-08T05:50:59.766Z,91.23
2022-12-08T05:53:26.869Z,89.90
2022-12-08T05:55:53.987Z,89.46
2022-12-08T05:58:23.041Z,89.23
2022-12-08T06:00:51.168Z,88.69
2022-12-08T06:03:19.644Z,88.88
2022-12-08T06:05:47.975Z,88.83
2022-12-08T06:08:14.978Z,88.76
2022-12-08T06:10:43.919Z,88.69
2022-12-08T06:13:10.910Z,88.62
2022-12-08T06:15:38.989Z,88.57
2022-12-08T06:18:06.944Z,88.75
2022-12-08T06:20:35.357Z,89.15
2022-12-08T06:23:03.419Z,88.66
2022-12-08T06:25:30.238Z,89.21
2022-12-08T06:27:57.071Z,89.18
2022-12-08T06:30:24.064Z,90.36
2022-12-08T06:32:50.892Z,89.75
2022-12-08T06:35:17.763Z,90.52
2022-12-08T06:37:48.169Z,90.32
2022-12-08T06:40:15.035Z,90.44
2022-12-08T06:42:44.559Z,90.81
2022-12-08T06:45:14.890Z,90.46
2022-12-08T06:47:42.368Z,91.16
2022-12-08T06:50:11.069Z,91.18
2022-12-08T06:52:46.754Z,90.72
2022-12-08T06:55:35.277Z,91.27
2022-12-08T06:58:03.481Z,91.17
2022-12-08T07:00:30.413Z,90.93
2022-12-08T07:02:57.361Z,92.02
2022-12-08T07:05:24.348Z,91.50
2022-12-08T07:07:51.293Z,92.50
2022-12-08T07:10:18.282Z,92.15
2022-12-08T07:12:45.755Z,92.63
2022-12-08T07:15:12.606Z,92.60
2022-12-08T07:17:39.494Z,92.13
2022-12-08T07:20:07.640Z,93.41
2022-12-08T07:22:35.206Z,92.11
2022-12-08T07:25:02.087Z,92.73
2022-12-08T07:27:29.041Z,92.44
2022-12-08T07:29:55.910Z,92.74
2022-12-08T07:32:22.831Z,92.88
2022-12-08T07:34:49.625Z,93.13
2022-12-08T07:37:16.409Z,92.72
2022-12-08T07:39:43.261Z,92.89
2022-12-08T07:42:10.097Z,91.88
2022-12-08T07:44:36.899Z,91.33
2022-12-08T07:47:03.818Z,91.31
2022-12-08T07:49:30.643Z,91.26
2022-12-08T07:51:57.450Z,91.54
2022-12-08T07:54:24.267Z,91.20
2022-12-08T07:56:51.168Z,91.23
2022-12-08T07:59:18.053Z,90.54
2022-12-08T08:01:45.700Z,90.34
2022-12-08T08:04:12.746Z,89.73
2022-12-08T08:06:39.640Z,90.00
2022-12-08T08:09:06.580Z,89.43
2022-12-08T08:11:33.464Z,89.68
2022-12-08T08:14:00.292Z,90.43
2022-12-08T08:16:28.473Z,89.41
2022-12-08T08:18:56.916Z,89.82
2022-12-08T08:24:10.645Z,88.90
2022-12-08T08:26:37.592Z,89.90
2022-12-08T08:29:04.419Z,90.43
2022-12-08T08:31:31.316Z,89.32
2022-12-08T08:33:58.216Z,88.48
2022-12-08T08:36:34.275Z,89.29
2022-12-08T08:39:01.139Z,88.85
2022-12-08T08:41:27.997Z,87.84
2022-12-08T08:43:55.211Z,87.93
2022-12-08T08:46:22.145Z,88.48
2022-12-08T08:48:49.019Z,87.46
2022-12-08T08:51:15.880Z,87.00
2022-12-08T08:53:43.419Z,87.40
2022-12-08T08:56:15.638Z,87.36
2022-12-08T08:58:42.561Z,86.97
2022-12-08T09:01:09.368Z,87.04
2022-12-08T09:03:36.367Z,86.81
2022-12-08T09:06:03.306Z,86.70
2022-12-08T09:08:30.290Z,85.33
2022-12-08T09:10:57.171Z,84.85
2022-12-08T09:13:24.074Z,84.20
2022-12-08T09:15:51.050Z,84.70
2022-12-08T09:18:18.233Z,84.42
2022-12-08T09:20:45.188Z,85.93
2022-12-08T09:23:12.017Z,85.57
2022-12-08T09:25:44.823Z,84.90
2022-12-08T09:28:12.986Z,83.67
2022-12-08T09:30:40.566Z,82.98
2022-12-08T09:33:07.433Z,83.18
2022-12-08T09:35:34.290Z,82.82
2022-12-08T09:38:01.168Z,82.98
2022-12-08T09:40:30.779Z,82.42
2022-12-08T09:43:33.205Z,81.75
2022-12-08T09:46:01.887Z,80.32
2022-12-08T09:48:41.363Z,80.86
2022-12-08T09:51:09.606Z,80.93
2022-12-08T09:53:45.990Z,81.49
2022-12-08T09:56:18.915Z,81.70
2022-12-08T09:59:09.136Z,80.55
2022-12-08T10:01:41.560Z,78.84
2022-12-08T10:04:24.713Z,78.40
2022-12-08T10:07:04.660Z,76.59
2022-12-08T10:09:40.391Z,75.83
2022-12-08T10:12:32.463Z,74.91
2022-12-08T10:15:36.007Z,74.26
2022-12-08T10:18:12.312Z,74.59
2022-12-08T10:20:44.068Z,74.04
2022-12-08T10:23:27.751Z,74.53
2022-12-08T10:26:01.909Z,73.65
2022-12-08T10:28:28.811Z,73.46
2022-12-08T10:30:55.850Z,74.79
2022-12-08T10:33:23.782Z,75.17
2022-12-08T10:35:56.516Z,74.56
2022-12-08T10:38:36.580Z,74.74
2022-12-08T10:41:09.487Z,74.13
2022-12-08T10:43:48.984Z,72.23
2022-12-08T10:46:17.581Z,72.65
2022-12-08T10:49:07.624Z,72.38
2022-12-08T10:51:34.347Z,72.91
2022-12-08T10:54:01.950Z,72.47
2022-12-08T10:56:32.573Z,71.83
2022-12-08T10:59:19.144Z,73.14
2022-12-08T11:01:49.316Z,74.06
2022-12-08T11:04:34.715Z,73.35
2022-12-08T11:07:03.128Z,71.74
2022-12-08T11:09:40.315Z,70.92
2022-12-08T11:12:16.126Z,71.27
2022-12-08T11:14:42.816Z,71.29
2022-12-08T11:17:15.122Z,71.06
2022-12-08T11:20:08.731Z,70.93
2022-12-08T11:22:40.826Z,70.59
2022-12-08T11:25:07.552Z,71.76
2022-12-08T11:27:37.378Z,71.29
2022-12-08T11:30:17.958Z,72.82
2022-12-08T11:32:53.278Z,72.45
2022-12-08T11:35:31.347Z,73.26
2022-12-08T11:38:20.418Z,73.76
2022-12-08T11:40:52.705Z,73.69
2022-12-08T11:43:50.356Z,74.50
2022-12-08T11:46:56.525Z,75.32
2022-12-08T11:49:36.423Z,75.84
2022-12-08T11:52:14.617Z,75.26
2022-12-08T11:54:59.770Z,74.27
2022-12-08T11:57:28.848Z,74.89
2022-12-08T11:59:58.294Z,74.91
2022-12-08T12:02:29.691Z,74.47
2022-12-08T12:05:08.991Z,74.92
2022-12-08T12:08:04.980Z,75.68
2022-12-08T12:10:41.346Z,75.86
2022-12-08T12:13:52.010Z,76.51
2022-12-08T12:16:49.852Z,77.77
2022-12-08T12:19:20.834Z,78.09
2022-12-08T12:21:56.071Z,76.72
2022-12-08T12:24:35.935Z,78.17
2022-12-08T12:27:15.183Z,76.44
2022-12-08T12:29:55.998Z,75.96
2022-12-08T12:32:24.814Z,75.75
2022-12-08T12:34:56.238Z,75.93
2022-12-08T12:37:43.497Z,75.40
2022-12-08T12:40:18.037Z,76.19
2022-12-08T12:43:09.718Z,76.51
2022-12-08T12:45:43.689Z,74.80
2022-12-08T12:48:19.931Z,76.97
2022-12-08T12:50:50.010Z,76.23
2022-12-08T12:53:16.721Z,76.76
2022-12-08T12:55:52.293Z,76.02
2022-12-08T12:58:28.353Z,76.39
2022-12-08T13:01:10.513Z,76.08
2022-12-08T13:03:41.359Z,76.57
2022-12-08T13:06:14.619Z,76.63
2022-12-08T13:08:52.706Z,76.19
2022-12-08T13:11:20.176Z,76.12
2022-12-08T13:14:04.877Z,74.63
2022-12-08T13:16:39.883Z,74.68
2022-12-08T13:19:16.093Z,73.05
2022-12-08T13:22:04.345Z,73.10
2022-12-08T13:24:34.928Z,73.17
2022-12-08T13:27:04.748Z,72.31
2022-12-08T13:29:37.304Z,73.50
2022-12-08T13:33:17.153Z,73.12
2022-12-08T13:35:54.978Z,73.83
2022-12-08T13:38:26.724Z,74.81
2022-12-08T13:40:55.901Z,74.79
2022-12-08T13:44:24.829Z,76.26
2022-12-08T13:58:35.464Z,79.00
2022-12-08T14:01:11.554Z,79.91
2022-12-08T14:06:58.619Z,80.97
2022-12-08T14:09:35.556Z,80.45
2022-12-08T14:12:17.735Z,81.54
2022-12-08T14:15:04.989Z,81.48
2022-12-08T14:17:33.017Z,81.20
2022-12-08T14:20:11.915Z,81.47
2022-12-08T14:22:41.084Z,81.62
2022-12-08T14:25:15.456Z,81.39
2022-12-08T14:27:42.752Z,81.36
2022-12-08T14:30:15.095Z,80.99
2022-12-08T14:32:53.737Z,81.36
2022-12-08T14:35:23.144Z,80.64
2022-12-08T14:37:58.498Z,80.80
2022-12-08T14:40:35.643Z,81.04
2022-12-08T14:43:07.911Z,81.61
2022-12-08T14:45:41.369Z,81.78
2022-12-08T14:48:36.264Z,81.60
2022-12-08T14:51:18.786Z,82.27
2022-12-08T14:54:02.238Z,82.06
2022-12-08T14:56:53.104Z,83.09
2022-12-08T14:59:26.390Z,83.94
2022-12-08T15:02:30.018Z,83.48
2022-12-08T15:05:11.272Z,83.94
2022-12-08T15:07:54.555Z,85.17
2022-12-08T15:10:30.756Z,85.03
2022-12-08T15:13:07.349Z,85.01
2022-12-08T15:15:56.757Z,84.52
2022-12-08T15:18:39.480Z,84.39
2022-12-08T15:21:09.736Z,84.24
2022-12-08T15:23:44.674Z,84.19
2022-12-08T15:26:26.656Z,84.17
2022-12-08T15:28:54.597Z,83.90
2022-12-08T15:31:21.750Z,84.14
2022-12-08T15:33:48.712Z,84.25
2022-12-08T15:36:15.605Z,83.57
2022-12-08T15:38:43.600Z,83.08
2022-12-08T15:41:14.942Z,83.77
2022-12-08T15:43:42.367Z,83.47
2022-12-08T15:46:09.284Z,83.73
2022-12-08T15:48:38.024Z,82.51
2022-12-08T15:51:05.038Z,83.16
2022-12-08T15:53:31.855Z,83.56
2022-12-08T15:58:55.720Z,82.94
2022-12-08T16:01:24.225Z,82.88
2022-12-08T16:09:39.493Z,82.99
2022-12-08T16:13:13.510Z,82.04
2022-12-08T16:15:50.182Z,82.67
2022-12-08T16:18:15.065Z,82.71
2022-12-08T16:23:45.947Z,82.52
2022-12-08T16:29:07.127Z,82.16
2022-12-08T16:31:34.035Z,81.49
2022-12-08T16:34:01.122Z,81.78
2022-12-08T16:36:27.933Z,81.25
2022-12-08T16:38:54.777Z,81.96
2022-12-08T16:41:39.791Z,81.69
2022-12-08T16:44:06.772Z,81.52
2022-12-08T16:46:34.743Z,82.04
2022-12-08T16:49:01.592Z,81.20
2022-12-08T16:51:28.491Z,82.54
2022-12-08T16:53:57.006Z,81.83
2022-12-08T16:56:28.949Z,81.23
2022-12-08T16:58:58.995Z,81.52
2022-12-08T17:01:25.980Z,82.01
2022-12-08T17:04:22.579Z,81.19
2022-12-08T17:06:40.367Z,81.54
2022-12-08T17:09:07.183Z,82.29
2022-12-08T17:11:40.754Z,82.93
2022-12-08T17:14:09.758Z,82.98
2022-12-08T17:16:36.628Z,82.91
2022-12-08T17:19:03.797Z,82.89
2022-12-08T17:21:30.639Z,82.59
2022-12-08T17:23:57.540Z,82.86
2022-12-08T17:26:24.654Z,83.70
2022-12-08T17:29:00.557Z,83.04
2022-12-08T17:31:30.382Z,83.34
2022-12-08T17:34:02.569Z,83.57
2022-12-08T17:36:29.611Z,83.22
2022-12-08T17:38:59.728Z,84.02
2022-12-08T17:41:26.756Z,83.93
2022-12-08T17:43:53.603Z,83.73
2022-12-08T17:46:21.761Z,83.95
2022-12-08T17:48:48.671Z,84.54
2022-12-08T17:51:16.082Z,84.18
2022-12-08T17:53:43.298Z,84.64
2022-12-08T17:56:17.844Z,84.67
2022-12-08T17:58:45.673Z,84.96
2022-12-08T18:01:14.633Z,84.57
2022-12-08T18:03:41.482Z,86.04
2022-12-08T18:06:11.196Z,85.01
2022-12-08T18:08:39.225Z,85.86
2022-12-08T18:11:15.010Z,86.00
2022-12-08T18:13:42.314Z,86.15
2022-12-08T18:16:09.297Z,86.31
2022-12-08T18:18:36.173Z,85.88
2022-12-08T18:21:03.090Z,86.40
2022-12-08T18:23:29.886Z,86.40
2022-12-08T18:25:56.802Z,86.15
2022-12-08T18:28:24.189Z,86.04
2022-12-08T18:30:51.237Z,86.89
2022-12-08T18:33:18.145Z,87.07
2022-12-08T18:35:44.997Z,86.86
2022-12-08T18:38:11.899Z,86.39
2022-12-08T18:40:39.124Z,86.17
2022-12-08T18:43:06.074Z,86.79
2022-12-08T18:45:33.730Z,86.22
2022-12-08T18:48:00.585Z,86.96
2022-12-08T18:50:27.441Z,86.29
2022-12-08T18:52:54.578Z,85.97
2022-12-08T18:55:21.400Z,85.60
2022-12-08T18:57:48.385Z,85.37
2022-12-08T19:00:18.112Z,84.85
2022-12-08T19:02:45.419Z,85.47
2022-12-08T19:05:13.878Z,86.44
2022-12-08T19:07:42.642Z,86.35
2022-12-08T19:10:10.633Z,86.11
2022-12-08T19:12:37.610Z,85.75
2022-12-08T19:15:05.597Z,85.62
2022-12-08T19:17:32.898Z,85.51
2022-12-08T19:19:59.887Z,85.71
2022-12-08T19:22:26.724Z,85.79
2022-12-08T19:24:53.557Z,85.31
2022-12-08T19:27:20.433Z,85.69
2022-12-08T19:29:47.432Z,85.76
2022-12-08T19:32:14.373Z,85.53
2022-12-08T19:34:41.383Z,85.94
2022-12-08T19:37:10.281Z,85.71
2022-12-08T19:39:55.564Z,85.78
2022-12-08T19:42:40.923Z,85.59
2022-12-08T19:45:16.339Z,86.58
2022-12-08T19:47:43.581Z,86.24
2022-12-08T19:50:31.502Z,86.74
2022-12-08T19:52:58.744Z,86.11
2022-12-08T19:55:25.932Z,85.84
2022-12-08T19:57:54.245Z,86.50
2022-12-08T20:00:21.663Z,86.90
2022-12-08T20:02:48.687Z,87.36
2022-12-08T20:05:16.029Z,86.87
2022-12-08T20:07:43.084Z,86.06
2022-12-08T20:10:25.280Z,87.49
2022-12-08T20:13:12.064Z,86.29
2022-12-08T20:15:39.005Z,85.79
2022-12-08T20:18:06.492Z,85.91
2022-12-08T20:20:33.446Z,85.66
2022-12-08T20:23:00.302Z,85.65
2022-12-08T20:25:27.182Z,85.45
2022-12-08T20:27:54.035Z,85.29
2022-12-08T20:30:20.999Z,84.98
2022-12-08T20:32:47.861Z,84.69
2022-12-08T20:35:15.735Z,84.95
2022-12-08T20:37:42.932Z,84.68
2022-12-08T20:40:10.209Z,84.77
2022-12-08T20:42:37.090Z,84.82
2022-12-08T20:45:07.176Z,84.29
2022-12-08T20:47:34.638Z,83.49
2022-12-08T20:50:05.083Z,84.35
2022-12-08T20:52:32.521Z,84.29
2022-12-08T20:54:59.416Z,83.83
2022-12-08T20:57:26.525Z,84.23
2022-12-08T20:59:53.408Z,84.21
2022-12-08T21:02:20.371Z,83.61
2022-12-08T21:04:47.815Z,84.52
2022-12-08T21:07:14.777Z,84.81
2022-12-08T21:09:41.867Z,83.79
2022-12-08T21:12:09.035Z,85.27
2022-12-08T21:14:36.245Z,84.57
2022-12-08T21:17:04.476Z,83.96
2022-12-08T21:19:31.576Z,83.77
2022-12-08T21:21:58.600Z,83.93
2022-12-08T21:24:28.908Z,83.25
2022-12-08T21:27:00.530Z,83.74
2022-12-08T21:29:27.442Z,84.10
2022-12-08T21:31:57.262Z,84.24
2022-12-08T21:34:25.473Z,83.26
2022-12-08T21:36:53.156Z,83.62
2022-12-08T21:39:20.447Z,83.37
2022-12-08T21:42:05.908Z,83.24
2022-12-08T21:44:35.390Z,83.05
2022-12-08T21:47:03.596Z,82.64
2022-12-08T21:49:30.530Z,83.28
2022-12-08T21:51:57.878Z,82.99
2022-12-08T21:54:24.993Z,82.26
2022-12-08T21:56:51.979Z,82.63
2022-12-08T21:59:19.783Z,82.84
2022-12-08T22:01:47.392Z,82.99
2022-12-08T22:04:18.996Z,82.97
2022-12-08T22:06:46.052Z,82.43
2022-12-08T22:09:15.213Z,83.37
2022-12-08T22:11:43.532Z,82.95
2022-12-08T22:14:14.391Z,83.53
2022-12-08T22:16:43.058Z,83.36
2022-12-08T22:19:10.363Z,83.47
2022-12-08T22:21:38.211Z,83.33
2022-12-08T22:24:05.762Z,83.58
2022-12-08T22:26:32.710Z,83.83
2022-12-08T22:29:00.125Z,83.18
2022-12-08T22:31:42.546Z,83.91
2022-12-08T22:34:09.922Z,84.00
2022-12-08T22:36:36.842Z,84.55
2022-12-08T22:39:04.699Z,84.05
2022-12-08T22:41:31.611Z,84.58
2022-12-08T22:43:58.434Z,84.30
2022-12-08T22:46:27.259Z,84.58
2022-12-08T22:48:54.801Z,83.90
2022-12-08T22:51:21.951Z,83.91
2022-12-08T22:53:48.967Z,83.93
2022-12-08T22:56:17.239Z,84.34
2022-12-08T22:58:44.485Z,84.26
2022-12-08T23:01:29.144Z,84.23
2022-12-08T23:03:56.999Z,84.97
2022-12-08T23:06:26.052Z,84.51
2022-12-08T23:08:53.414Z,84.63
2022-12-08T23:11:23.495Z,83.94
2022-12-08T23:13:50.352Z,84.37
2022-12-08T23:16:17.367Z,84.07
2022-12-08T23:18:46.510Z,83.62
2022-12-08T23:21:19.376Z,84.47
2022-12-08T23:23:47.258Z,84.48
2022-12-08T23:26:27.401Z,84.35
2022-12-08T23:28:55.663Z,84.81
2022-12-08T23:31:23.566Z,84.95
2022-12-08T23:33:51.552Z,84.31
2022-12-08T23:36:20.409Z,84.64
2022-12-08T23:38:48.977Z,84.25
2022-12-08T23:41:16.790Z,85.05
2022-12-08T23:43:46.363Z,84.64
2022-12-08T23:46:14.608Z,84.81
2022-12-08T23:48:41.683Z,85.22
2022-12-08T23:51:08.780Z,85.18
2022-12-08T23:53:36.107Z,85.15
2022-12-08T23:56:07.282Z,85.36
2022-12-08T23:58:34.973Z,85.56
